Time;durP1;ratioP1;P1;durP2;ratioP2;P2;SDS_P1;SDS_P2;PMS_P1;PMS_P2;Temp;Humidity;BMP_temperature;BMP_pressure;BME280_temperature;BME280_humidity;BME280_pressure;Samples;Min_cycle;Max_cycle;Signal;HPM_P1;HPM_P2
2022/01/17 00:01:12;;;;;;;29.13;14.82;;;;;;;-141.50;100.00;63355.56;5019521;28;20081;-84
2022/01/17 00:03:39;;;;;;;32.05;14.98;;;;;;;-141.50;100.00;63355.56;5020311;28;20046;-84
2022/01/17 00:06:05;;;;;;;34.15;16.45;;;;;;;-141.50;100.00;63355.56;4999148;28;20358;-84
2022/01/17 00:08:33;;;;;;;32.83;15.40;;;;;;;-141.50;100.00;63355.56;5001714;28;20050;-82
2022/01/17 00:11:00;;;;;;;29.08;15.65;;;;;;;-141.50;100.00;63355.56;5002071;28;20054;-83
2022/01/17 00:13:29;;;;;;;31.17;15.32;;;;;;;-141.50;100.00;63355.56;5017553;28;20046;-83
2022/01/17 00:16:09;;;;;;;28.70;13.60;;;;;;;-141.50;100.00;63355.56;5018843;28;20042;-84
2022/01/17 00:21:05;;;;;;;25.55;13.43;;;;;;;-141.50;100.00;63355.56;5020679;28;20050;-82
2022/01/17 00:23:32;;;;;;;33.05;15.15;;;;;;;-141.50;100.00;63355.56;5000210;28;20049;-86
2022/01/17 00:26:00;;;;;;;33.63;15.05;;;;;;;-141.50;100.00;63355.56;5018770;28;20062;-82
2022/01/17 00:28:26;;;;;;;31.40;16.27;;;;;;;-141.50;100.00;63355.56;5019840;28;20053;-83
2022/01/17 00:30:53;;;;;;;32.15;14.38;;;;;;;-141.50;100.00;63355.56;5002521;28;20080;-84
2022/01/17 00:33:20;;;;;;;31.90;15.43;;;;;;;-141.50;100.00;63355.56;5003166;28;20061;-85
2022/01/17 00:35:46;;;;;;;34.10;15.55;;;;;;;-141.50;100.00;63355.56;5024753;28;20046;-82
2022/01/17 00:38:13;;;;;;;30.15;14.52;;;;;;;-141.50;100.00;63355.56;5026841;28;20038;-85
2022/01/17 00:40:41;;;;;;;28.50;14.68;;;;;;;-141.50;100.00;63355.56;5006747;28;20107;-85
2022/01/17 00:43:08;;;;;;;29.90;14.48;;;;;;;-141.50;100.00;63355.56;5013204;28;20053;-81
2022/01/17 00:45:38;;;;;;;30.70;15.70;;;;;;;-141.50;100.00;63355.56;5032352;28;20100;-85
2022/01/17 00:48:05;;;;;;;34.83;15.57;;;;;;;-141.50;100.00;63355.56;5010739;28;20383;-86
2022/01/17 00:50:32;;;;;;;29.75;15.23;;;;;;;-141.50;100.00;63355.56;5019778;28;20562;-84
2022/01/17 00:53:02;;;;;;;29.88;15.00;;;;;;;-141.50;100.00;63355.56;5001557;28;20046;-84
2022/01/17 00:55:33;;;;;;;28.63;13.50;;;;;;;-141.50;100.00;63355.56;5004049;28;20056;-84
2022/01/17 00:58:01;;;;;;;28.23;13.93;;;;;;;-141.50;100.00;63355.56;5022695;28;20050;-83
2022/01/17 01:00:29;;;;;;;33.53;16.23;;;;;;;-141.50;100.00;63355.56;5020920;28;20077;-85
2022/01/17 01:02:56;;;;;;;28.98;13.27;;;;;;;-141.50;100.00;63355.56;5008355;28;20049;-82
2022/01/17 01:05:23;;;;;;;31.20;15.25;;;;;;;-141.50;100.00;63355.56;5024023;28;20050;-86
2022/01/17 01:07:51;;;;;;;28.45;14.38;;;;;;;-141.50;100.00;63355.56;5010413;28;20049;-83
2022/01/17 01:10:18;;;;;;;31.65;14.73;;;;;;;-141.50;100.00;63355.56;5026882;28;20046;-83
2022/01/17 01:12:47;;;;;;;28.58;13.80;;;;;;;-141.50;100.00;63355.56;5024459;28;20045;-84
2022/01/17 01:15:20;;;;;;;29.17;14.25;;;;;;;-141.50;100.00;63355.56;5014327;28;20187;-86
2022/01/17 01:17:53;;;;;;;30.40;14.95;;;;;;;-141.50;100.00;63355.56;5033003;28;20092;-85
2022/01/17 01:28:38;;;;;;;28.05;14.38;;;;;;;-141.50;100.00;63355.56;5030427;28;20052;-84
2022/01/17 01:31:11;;;;;;;27.75;14.30;;;;;;;-141.50;100.00;63355.56;5025340;28;20081;-83
2022/01/17 01:33:41;;;;;;;26.52;13.02;;;;;;;-141.50;100.00;63355.56;5024038;28;20112;-83
2022/01/17 01:36:16;;;;;;;27.52;14.32;;;;;;;-141.50;100.00;63355.56;5025178;28;20056;-83
2022/01/17 01:38:43;;;;;;;26.45;13.45;;;;;;;-141.50;100.00;63355.56;5024080;28;20049;-84
2022/01/17 01:41:09;;;;;;;25.45;13.35;;;;;;;-141.50;100.00;63355.56;5023907;28;20050;-84
2022/01/17 01:43:36;;;;;;;26.73;13.77;;;;;;;-141.50;100.00;63355.56;5022987;28;20478;-85
2022/01/17 01:46:03;;;;;;;26.65;12.88;;;;;;;-141.50;100.00;63355.56;5021709;28;20057;-82
2022/01/17 01:48:33;;;;;;;26.02;13.43;;;;;;;-141.50;100.00;63355.56;5022762;28;20173;-81
2022/01/17 01:51:00;;;;;;;29.20;13.93;;;;;;;-141.50;100.00;63355.56;5021980;28;20050;-83
2022/01/17 01:53:27;;;;;;;24.58;12.23;;;;;;;-141.50;100.00;63355.56;5010824;28;20048;-83
2022/01/17 01:55:56;;;;;;;25.15;12.57;;;;;;;-141.50;100.00;63355.56;5006462;28;20088;-85
2022/01/17 01:58:24;;;;;;;23.52;11.93;;;;;;;-141.50;100.00;63355.56;5027783;28;20513;-85
2022/01/17 02:00:51;;;;;;;24.38;12.52;;;;;;;-141.50;100.00;63355.56;5001780;28;20254;-85
2022/01/17 02:03:19;;;;;;;24.98;12.70;;;;;;;-141.50;100.00;63355.56;5001551;28;20049;-84
2022/01/17 02:05:46;;;;;;;24.92;12.40;;;;;;;-141.50;100.00;63355.56;5019108;28;20085;-85
2022/01/17 02:08:14;;;;;;;23.05;12.68;;;;;;;-141.50;100.00;63355.56;5004099;28;20054;-84
2022/01/17 02:10:42;;;;;;;24.33;13.27;;;;;;;-141.50;100.00;63355.56;5018168;28;20128;-84
2022/01/17 02:13:09;;;;;;;23.77;12.80;;;;;;;-141.50;100.00;63355.56;5019030;28;20096;-83
2022/01/17 02:15:40;;;;;;;23.02;12.45;;;;;;;-141.50;100.00;63355.56;5005053;28;20073;-85
2022/01/17 02:18:08;;;;;;;23.13;12.57;;;;;;;-141.50;100.00;63355.56;5006442;28;20065;-83
2022/01/17 02:20:43;;;;;;;24.77;13.02;;;;;;;-141.50;100.00;63355.56;5023145;28;20553;-82
2022/01/17 02:23:10;;;;;;;26.00;14.07;;;;;;;-141.50;100.00;63355.56;5005598;28;20111;-84
2022/01/17 02:25:37;;;;;;;25.85;13.93;;;;;;;-141.50;100.00;63355.56;5003344;28;20061;-84
2022/01/17 02:28:04;;;;;;;27.65;14.18;;;;;;;-141.50;100.00;63355.56;5026558;28;20108;-83
2022/01/17 02:30:31;;;;;;;28.90;15.68;;;;;;;-141.50;100.00;63355.56;5006357;28;20481;-83
2022/01/17 02:33:00;;;;;;;24.98;14.00;;;;;;;-141.50;100.00;63355.56;5023895;28;20046;-84
2022/01/17 02:35:27;;;;;;;24.17;13.05;;;;;;;-141.50;100.00;63355.56;5023344;28;20058;-85
2022/01/17 02:37:55;;;;;;;27.45;14.38;;;;;;;-141.50;100.00;63355.56;5023150;28;20065;-84
2022/01/17 02:40:22;;;;;;;24.55;13.13;;;;;;;-141.50;100.00;63355.56;5026372;28;20506;-83
2022/01/17 02:43:01;;;;;;;24.48;13.77;;;;;;;-141.50;100.00;63355.56;5005069;28;20108;-83
2022/01/17 02:45:35;;;;;;;22.63;12.13;;;;;;;-141.50;100.00;63355.56;5022664;28;20054;-81
2022/01/17 02:48:06;;;;;;;27.13;12.98;;;;;;;-141.50;100.00;63355.56;5006049;28;20073;-83
2022/01/17 02:50:33;;;;;;;24.92;13.63;;;;;;;-141.50;100.00;63355.56;5023988;28;20058;-81
2022/01/17 02:53:04;;;;;;;23.65;13.15;;;;;;;-141.50;100.00;63355.56;5022923;28;20046;-81
2022/01/17 02:55:30;;;;;;;24.08;12.75;;;;;;;-141.50;100.00;63355.56;5022359;28;20050;-84
2022/01/17 02:57:57;;;;;;;26.83;12.40;;;;;;;-141.50;100.00;63355.56;5005650;28;20049;-82
2022/01/17 03:00:24;;;;;;;22.33;12.43;;;;;;;-141.50;100.00;63355.56;5006121;28;20057;-82
2022/01/17 03:02:51;;;;;;;25.10;12.85;;;;;;;-141.50;100.00;63355.56;5005909;28;20378;-84
2022/01/17 03:05:19;;;;;;;27.17;13.88;;;;;;;-141.50;100.00;63355.56;5023638;28;20049;-83
2022/01/17 03:07:47;;;;;;;25.55;13.13;;;;;;;-141.50;100.00;63355.56;5004589;28;20054;-84
2022/01/17 03:10:28;;;;;;;27.10;13.40;;;;;;;-141.50;100.00;63355.56;5022779;28;20054;-85
2022/01/17 03:13:05;;;;;;;25.20;13.27;;;;;;;-141.50;100.00;63355.56;5018156;28;20046;-85
2022/01/17 03:15:32;;;;;;;25.42;13.82;;;;;;;-141.50;100.00;63355.56;5005357;28;20072;-86
2022/01/17 03:17:58;;;;;;;27.60;13.60;;;;;;;-141.50;100.00;63355.56;5018904;28;20061;-85
2022/01/17 03:20:25;;;;;;;25.55;13.07;;;;;;;-141.50;100.00;63355.56;5019069;28;20479;-85
2022/01/17 03:22:52;;;;;;;27.17;14.05;;;;;;;-141.50;100.00;63355.56;5003041;28;20061;-84
2022/01/17 03:25:18;;;;;;;23.60;13.40;;;;;;;-141.50;100.00;63355.56;5004382;28;20049;-86
2022/01/17 03:27:45;;;;;;;25.35;12.77;;;;;;;-141.50;100.00;63355.56;5005077;28;20066;-85
2022/01/17 03:30:12;;;;;;;23.80;12.32;;;;;;;-141.50;100.00;63355.56;5020312;28;20130;-85
2022/01/17 03:32:39;;;;;;;22.77;12.38;;;;;;;-141.50;100.00;63355.56;5019739;28;20088;-85
2022/01/17 03:35:06;;;;;;;24.33;13.45;;;;;;;-141.50;100.00;63355.56;5016206;28;20112;-84
2022/01/17 03:37:33;;;;;;;26.60;13.20;;;;;;;-141.50;100.00;63355.56;5003034;28;20054;-84
2022/01/17 03:40:00;;;;;;;23.77;12.27;;;;;;;-141.50;100.00;63355.56;5022074;28;20193;-84
2022/01/17 03:42:26;;;;;;;26.45;12.02;;;;;;;-141.50;100.00;63355.56;5021320;28;20054;-85
2022/01/17 03:44:53;;;;;;;19.17;11.13;;;;;;;-141.50;100.00;63355.56;5019945;28;20281;-84
2022/01/17 03:47:19;;;;;;;18.65;10.40;;;;;;;-141.50;100.00;63355.56;5000157;28;20046;-85
2022/01/17 03:49:46;;;;;;;19.92;10.88;;;;;;;-141.50;100.00;63355.56;5024351;28;20498;-84
2022/01/17 03:52:12;;;;;;;18.90;10.10;;;;;;;-141.50;100.00;63355.56;5023552;28;20058;-85
2022/01/17 03:54:39;;;;;;;16.45;8.68;;;;;;;-141.50;100.00;63355.56;5021542;28;20046;-83
2022/01/17 03:57:05;;;;;;;16.70;8.80;;;;;;;-141.50;100.00;63355.56;5020177;28;20057;-85
2022/01/17 03:59:32;;;;;;;13.70;7.70;;;;;;;-141.50;100.00;63355.56;5020821;28;20050;-84
2022/01/17 04:01:59;;;;;;;15.43;8.35;;;;;;;-141.50;100.00;63355.56;5018594;28;20526;-84
2022/01/17 04:04:26;;;;;;;14.75;7.30;;;;;;;-141.50;100.00;63355.56;5021145;28;20084;-84
2022/01/17 04:06:53;;;;;;;13.95;8.15;;;;;;;-141.50;100.00;63355.56;5020959;28;20050;-81
2022/01/17 04:09:20;;;;;;;14.02;7.93;;;;;;;-141.50;100.00;63355.56;5005155;28;20506;-83
2022/01/17 04:11:46;;;;;;;13.50;8.05;;;;;;;-141.50;100.00;63355.56;5021207;28;20135;-82
2022/01/17 04:14:13;;;;;;;14.27;7.85;;;;;;;-141.50;100.00;63355.56;5020289;28;20360;-83
2022/01/17 04:16:39;;;;;;;12.20;7.20;;;;;;;-141.50;100.00;63355.56;5018955;28;20127;-84
2022/01/17 04:19:06;;;;;;;11.88;7.35;;;;;;;-141.50;100.00;63355.56;5018977;28;20072;-83
2022/01/17 04:21:38;;;;;;;13.82;7.32;;;;;;;-141.50;100.00;63355.56;5023299;28;20057;-85
2022/01/17 04:24:05;;;;;;;14.57;8.38;;;;;;;-141.50;100.00;63355.56;5030008;28;20042;-83
2022/01/17 04:26:31;;;;;;;14.82;7.50;;;;;;;-141.50;100.00;63355.56;5013599;28;20116;-83
2022/01/17 04:28:58;;;;;;;11.68;7.03;;;;;;;-141.50;100.00;63355.56;5013986;28;20102;-83
2022/01/17 04:31:24;;;;;;;12.57;6.75;;;;;;;-141.50;100.00;63355.56;5031951;28;20038;-84
2022/01/17 04:33:51;;;;;;;11.35;6.22;;;;;;;-141.50;100.00;63355.56;5029870;28;20038;-85
2022/01/17 04:36:17;;;;;;;10.43;5.57;;;;;;;-141.50;100.00;63355.56;5026323;28;20054;-84
2022/01/17 04:38:44;;;;;;;12.30;6.22;;;;;;;-141.50;100.00;63355.56;5027621;28;20116;-84
2022/01/17 04:41:17;;;;;;;14.05;6.90;;;;;;;-141.50;100.00;63355.56;5027763;28;20535;-85
2022/01/17 04:46:16;;;;;;;12.18;6.55;;;;;;;-141.50;100.00;63355.56;5025508;28;20046;-85
2022/01/17 04:48:43;;;;;;;11.18;6.00;;;;;;;-141.50;100.00;63355.56;5024789;28;20046;-86
2022/01/17 04:51:09;;;;;;;11.50;6.90;;;;;;;-141.50;100.00;63355.56;5024591;28;20076;-86
2022/01/17 04:53:36;;;;;;;10.57;6.03;;;;;;;-141.50;100.00;63355.56;5023525;28;20046;-85
2022/01/17 04:56:03;;;;;;;10.88;5.07;;;;;;;-141.50;100.00;63355.56;5026013;28;20053;-84
2022/01/17 04:58:30;;;;;;;10.95;5.22;;;;;;;-141.50;100.00;63355.56;5022378;28;20054;-84
2022/01/17 05:00:57;;;;;;;12.82;5.35;;;;;;;-141.50;100.00;63355.56;5022104;28;20046;-85
2022/01/17 05:03:26;;;;;;;8.70;4.80;;;;;;;-141.50;100.00;63355.56;5025205;28;20046;-85
2022/01/17 05:05:54;;;;;;;11.77;4.90;;;;;;;-141.50;100.00;63355.56;5006813;28;20310;-85
2022/01/17 05:08:21;;;;;;;10.00;5.05;;;;;;;-141.50;100.00;63355.56;5019794;28;20049;-86
2022/01/17 05:10:52;;;;;;;13.40;5.32;;;;;;;-141.50;100.00;63355.56;5023554;28;20069;-85
2022/01/17 05:13:24;;;;;;;10.25;5.45;;;;;;;-141.50;100.00;63355.56;5020107;28;20077;-84
2022/01/17 05:16:04;;;;;;;10.30;5.13;;;;;;;-141.50;100.00;63355.56;5004611;28;20058;-85
2022/01/17 05:20:58;;;;;;;11.65;5.35;;;;;;;-141.50;100.00;63355.56;5021852;28;20457;-82
2022/01/17 05:23:24;;;;;;;11.55;4.95;;;;;;;-141.50;100.00;63355.56;5006981;28;20096;-82
2022/01/17 05:25:51;;;;;;;9.30;4.97;;;;;;;-141.50;100.00;63355.56;5028457;28;20058;-84
2022/01/17 05:28:17;;;;;;;11.93;4.97;;;;;;;-141.50;100.00;63355.56;5029261;28;20054;-83
2022/01/17 05:30:44;;;;;;;11.30;5.20;;;;;;;-141.50;100.00;63355.56;5027042;28;20549;-84
2022/01/17 05:33:10;;;;;;;12.10;5.18;;;;;;;-141.50;100.00;63355.56;5012215;28;20580;-84
2022/01/17 05:35:37;;;;;;;14.40;5.78;;;;;;;-141.50;100.00;63355.56;5024209;28;20046;-84
2022/01/17 05:38:04;;;;;;;11.60;5.38;;;;;;;-141.50;100.00;63355.56;5022885;28;20049;-84
2022/01/17 05:40:30;;;;;;;11.48;5.97;;;;;;;-141.50;100.00;63355.56;5005665;28;20054;-84
2022/01/17 05:42:59;;;;;;;10.07;5.38;;;;;;;-141.50;100.00;63355.56;5006251;28;20050;-84
2022/01/17 05:45:26;;;;;;;10.18;5.00;;;;;;;-141.50;100.00;63355.56;5024800;28;20046;-83
2022/01/17 05:47:52;;;;;;;11.18;5.72;;;;;;;-141.50;100.00;63355.56;5024327;28;20057;-84
2022/01/17 05:50:21;;;;;;;10.73;5.47;;;;;;;-141.50;100.00;63355.56;5020882;28;20058;-85
2022/01/17 05:52:48;;;;;;;11.60;6.10;;;;;;;-141.50;100.00;63355.56;5017608;28;20445;-84
2022/01/17 05:55:15;;;;;;;12.13;5.45;;;;;;;-141.50;100.00;63355.56;5016949;28;20042;-83
2022/01/17 05:57:43;;;;;;;11.23;5.07;;;;;;;-141.50;100.00;63355.56;5019989;28;20150;-82
2022/01/17 06:00:13;;;;;;;10.48;5.20;;;;;;;-141.50;100.00;63355.56;5014262;28;20050;-82
2022/01/17 06:02:39;;;;;;;13.32;5.18;;;;;;;-141.50;100.00;63355.56;5022482;28;20149;-82
2022/01/17 06:05:09;;;;;;;12.05;5.50;;;;;;;-141.50;100.00;63355.56;5019445;28;20140;-84
2022/01/17 06:07:35;;;;;;;14.32;5.95;;;;;;;-141.50;100.00;63355.56;5000665;28;20108;-82
2022/01/17 06:10:02;;;;;;;11.80;5.50;;;;;;;-141.50;100.00;63355.56;5018126;28;20104;-84
2022/01/17 06:12:29;;;;;;;14.50;6.05;;;;;;;-141.50;100.00;63355.56;5018196;28;20060;-82
2022/01/17 06:14:57;;;;;;;13.15;5.50;;;;;;;-141.50;100.00;63355.56;5000216;28;20046;-81
2022/01/17 06:17:24;;;;;;;15.13;5.75;;;;;;;-141.50;100.00;63355.56;4997869;28;20042;-82
2022/01/17 06:19:50;;;;;;;14.02;5.75;;;;;;;-141.50;100.00;63355.56;5012693;28;20084;-83
2022/01/17 06:22:17;;;;;;;15.75;5.63;;;;;;;-141.50;100.00;63355.56;5035586;28;20057;-84
2022/01/17 06:24:44;;;;;;;12.85;4.70;;;;;;;-141.50;100.00;63355.56;5020508;28;20054;-82
2022/01/17 06:27:10;;;;;;;12.57;4.80;;;;;;;-141.50;100.00;63355.56;5016684;28;20438;-83
2022/01/17 06:29:37;;;;;;;11.93;5.20;;;;;;;-141.50;100.00;63355.56;4992816;28;20061;-84
2022/01/17 06:32:04;;;;;;;11.05;5.25;;;;;;;-141.50;100.00;63355.56;4997105;28;20080;-84
2022/01/17 06:34:51;;;;;;;14.25;5.53;;;;;;;-141.50;100.00;63355.56;4999468;28;20066;-84
2022/01/17 06:37:18;;;;;;;12.98;5.25;;;;;;;-141.50;100.00;63355.56;4996794;28;20303;-82
2022/01/17 06:39:45;;;;;;;18.20;6.00;;;;;;;-141.50;100.00;63355.56;4995411;28;20116;-82
2022/01/17 06:42:11;;;;;;;12.50;5.43;;;;;;;-141.50;100.00;63355.56;4997243;28;20555;-82
2022/01/17 06:44:38;;;;;;;12.02;5.43;;;;;;;-141.50;100.00;63355.56;5014419;28;20080;-82
2022/01/17 06:47:05;;;;;;;17.10;5.63;;;;;;;-141.50;100.00;63355.56;5009620;28;20050;-79
2022/01/17 06:49:31;;;;;;;16.02;6.15;;;;;;;-141.50;100.00;63355.56;5010676;28;20116;-84
2022/01/17 06:51:58;;;;;;;16.48;6.22;;;;;;;-141.50;100.00;63355.56;5013838;28;20142;-83
2022/01/17 06:54:24;;;;;;;11.50;5.20;;;;;;;-141.50;100.00;63355.56;4999838;28;20044;-82
2022/01/17 06:56:51;;;;;;;14.00;5.45;;;;;;;-141.50;100.00;63355.56;5014061;28;20054;-84
2022/01/17 06:59:18;;;;;;;10.32;5.07;;;;;;;-141.50;100.00;63355.56;5011078;28;20049;-84
2022/01/17 07:01:44;;;;;;;17.15;5.53;;;;;;;-141.50;100.00;63355.56;5011057;28;20050;-83
2022/01/17 07:04:11;;;;;;;12.25;5.03;;;;;;;-141.50;100.00;63355.56;4998704;28;20042;-84
2022/01/17 07:06:38;;;;;;;17.50;5.03;;;;;;;-141.50;100.00;63355.56;5012650;28;20065;-83
2022/01/17 07:09:05;;;;;;;11.85;3.97;;;;;;;-141.50;100.00;63355.56;5010904;28;20137;-86
2022/01/17 07:11:38;;;;;;;10.77;4.32;;;;;;;-141.50;100.00;63355.56;5018492;28;20051;-82
2022/01/17 07:14:06;;;;;;;14.63;4.10;;;;;;;-141.50;100.00;63355.56;5021591;28;20066;-84
2022/01/17 07:16:33;;;;;;;12.48;3.85;;;;;;;-141.50;100.00;63355.56;5008138;28;20061;-82
2022/01/17 07:18:59;;;;;;;11.80;3.88;;;;;;;-141.50;100.00;63355.56;5017294;28;20073;-80
2022/01/17 07:21:25;;;;;;;13.55;3.53;;;;;;;-141.50;100.00;63355.56;5017819;28;20054;-81
2022/01/17 07:23:52;;;;;;;11.88;3.47;;;;;;;-141.50;100.00;63355.56;4999725;28;20049;-83
2022/01/17 07:26:18;;;;;;;18.80;3.78;;;;;;;-141.50;100.00;63355.56;4999165;28;20083;-85
2022/01/17 07:28:45;;;;;;;15.82;4.00;;;;;;;-141.50;100.00;63355.56;4999061;28;20050;-85
2022/01/17 07:31:11;;;;;;;12.40;3.85;;;;;;;-141.50;100.00;63355.56;5018361;28;20054;-85
2022/01/17 07:33:38;;;;;;;12.23;3.40;;;;;;;-141.50;100.00;63355.56;5014967;28;20050;-80
2022/01/17 07:36:05;;;;;;;15.43;3.60;;;;;;;-141.50;100.00;63355.56;5014527;28;20058;-81
2022/01/17 07:38:32;;;;;;;19.17;4.50;;;;;;;-141.50;100.00;63355.56;5016649;28;20101;-83
2022/01/17 07:40:58;;;;;;;14.55;4.35;;;;;;;-141.50;100.00;63355.56;5015720;28;20053;-82
2022/01/17 07:43:45;;;;;;;10.25;3.70;;;;;;;-141.50;100.00;63355.56;5017187;28;20093;-81
2022/01/17 07:46:36;;;;;;;19.83;4.78;;;;;;;-141.50;100.00;63355.56;5018588;28;20093;-84
2022/01/17 07:49:13;;;;;;;;;;;;;;;;;;;;;
2022/01/17 07:51:42;;;;;;;17.40;5.10;;;;;;;-141.50;100.00;63355.56;5015327;28;20046;-83
2022/01/17 07:54:11;;;;;;;13.07;4.30;;;;;;;-141.50;100.00;63355.56;5011721;28;20560;-84
2022/01/17 07:56:38;;;;;;;17.88;4.50;;;;;;;-141.50;100.00;63355.56;5000304;28;20050;-84
2022/01/17 07:59:07;;;;;;;17.40;5.07;;;;;;;-141.50;100.00;63355.56;5017964;28;20076;-86
2022/01/17 08:01:37;;;;;;;15.90;4.45;;;;;;;-141.50;100.00;63355.56;5000262;28;20058;-83
2022/01/17 08:04:06;;;;;;;20.50;5.35;;;;;;;-141.50;100.00;63355.56;5002112;28;20065;-85
2022/01/17 08:06:38;;;;;;;16.25;5.35;;;;;;;-141.50;100.00;63355.56;5000827;28;20081;-85
2022/01/17 08:09:17;;;;;;;15.43;5.18;;;;;;;-141.50;100.00;63355.56;5017435;28;20057;-85
2022/01/17 08:12:03;;;;;;;19.88;4.90;;;;;;;-141.50;100.00;63355.56;5012665;28;20206;-86
2022/01/17 08:14:30;;;;;;;15.98;5.22;;;;;;;-141.50;100.00;63355.56;5017466;28;20068;-85
2022/01/17 08:16:56;;;;;;;15.98;4.90;;;;;;;-141.50;100.00;63355.56;5032812;28;20052;-84
2022/01/17 08:19:24;;;;;;;19.90;5.30;;;;;;;-141.50;100.00;63355.56;5023224;28;20053;-86
2022/01/17 08:21:57;;;;;;;19.17;4.90;;;;;;;-141.50;100.00;63355.56;5015410;28;20406;-85
2022/01/17 08:24:23;;;;;;;21.63;5.85;;;;;;;-141.50;100.00;63355.56;5012307;28;20064;-85
2022/01/17 08:26:50;;;;;;;19.63;5.47;;;;;;;-141.50;100.00;63355.56;5013554;28;20510;-84
2022/01/17 08:29:17;;;;;;;12.48;4.20;;;;;;;-141.50;100.00;63355.56;4999857;28;20042;-83
2022/01/17 08:31:46;;;;;;;14.15;4.00;;;;;;;-141.50;100.00;63355.56;5018768;28;20057;-82
2022/01/17 08:34:14;;;;;;;11.93;4.32;;;;;;;-141.50;100.00;63355.56;5019444;28;20046;-84
2022/01/17 08:36:41;;;;;;;10.32;3.88;;;;;;;-141.50;100.00;63355.56;5017215;28;20054;-82
2022/01/17 08:39:07;;;;;;;13.60;3.80;;;;;;;-141.50;100.00;63355.56;5000689;28;20053;-85
2022/01/17 08:41:34;;;;;;;13.60;4.00;;;;;;;-141.50;100.00;63355.56;5018568;28;20306;-84
2022/01/17 08:44:01;;;;;;;15.93;3.50;;;;;;;-141.50;100.00;63355.56;5017466;28;20046;-81
2022/01/17 08:46:27;;;;;;;20.25;4.95;;;;;;;-141.50;100.00;63355.56;5017278;28;20053;-81
2022/01/17 08:48:54;;;;;;;18.42;2.92;;;;;;;-141.50;100.00;63355.56;5017260;28;20080;-81
2022/01/17 08:51:21;;;;;;;22.15;4.13;;;;;;;-141.50;100.00;63355.56;5016942;28;20053;-84
2022/01/17 08:53:47;;;;;;;18.98;3.45;;;;;;;-141.50;100.00;63355.56;5016617;28;20060;-84
2022/01/17 08:56:14;;;;;;;22.00;3.50;;;;;;;-141.50;100.00;63355.56;5019037;28;20057;-83
2022/01/17 08:58:40;;;;;;;21.95;3.50;;;;;;;-141.50;100.00;63355.56;5014887;28;20126;-83
2022/01/17 09:01:08;;;;;;;19.38;3.28;;;;;;;-141.50;100.00;63355.56;5039014;28;20131;-83
2022/01/17 09:03:36;;;;;;;15.75;3.80;;;;;;;-141.50;100.00;63355.56;5037951;28;20050;-85
2022/01/17 09:06:02;;;;;;;15.55;3.40;;;;;;;-141.50;100.00;63355.56;5038376;28;20054;-84
2022/01/17 09:08:29;;;;;;;14.30;3.50;;;;;;;-141.50;100.00;63355.56;5019583;28;20053;-83
2022/01/17 09:10:57;;;;;;;15.13;3.60;;;;;;;-141.50;100.00;63355.56;5032275;28;20104;-83
2022/01/17 09:13:25;;;;;;;13.48;3.70;;;;;;;-141.50;100.00;63355.56;5030577;28;20053;-80
2022/01/17 09:15:53;;;;;;;21.92;3.83;;;;;;;-141.50;100.00;63355.56;5033238;28;20045;-84
2022/01/17 09:18:20;;;;;;;18.83;3.28;;;;;;;-141.50;100.00;63355.56;5036739;28;20049;-85
2022/01/17 09:20:47;;;;;;;18.02;3.50;;;;;;;-141.50;100.00;63355.56;5015986;28;20053;-84
2022/01/17 09:23:14;;;;;;;15.00;3.03;;;;;;;-141.50;100.00;63355.56;5005216;28;20134;-83
2022/01/17 09:25:40;;;;;;;18.33;3.60;;;;;;;-141.50;100.00;63355.56;5024787;28;20245;-83
2022/01/17 09:28:07;;;;;;;16.27;3.15;;;;;;;-141.50;100.00;63355.56;5023751;28;20076;-83
2022/01/17 09:30:35;;;;;;;9.70;2.97;;;;;;;-141.50;100.00;63355.56;5006537;28;20069;-84
2022/01/17 09:33:03;;;;;;;13.68;3.33;;;;;;;-141.50;100.00;63355.56;5023538;28;20072;-85
2022/01/17 09:35:31;;;;;;;14.25;3.22;;;;;;;-141.50;100.00;63355.56;5023855;28;20136;-83
2022/01/17 09:37:58;;;;;;;15.75;3.22;;;;;;;-141.50;100.00;63355.56;5030030;28;20061;-84
2022/01/17 09:40:25;;;;;;;12.32;3.10;;;;;;;-141.50;100.00;63355.56;5007463;28;20056;-85
2022/01/17 09:42:53;;;;;;;9.10;3.00;;;;;;;-141.50;100.00;63355.56;5009283;28;20049;-85
2022/01/17 09:45:22;;;;;;;13.52;2.72;;;;;;;-141.50;100.00;63355.56;5045285;28;20053;-86
2022/01/17 09:47:49;;;;;;;13.02;3.13;;;;;;;-141.50;100.00;63355.56;5042203;28;20068;-82
2022/01/17 09:50:22;;;;;;;11.25;3.30;;;;;;;-141.50;100.00;63355.56;5034810;28;20160;-83
2022/01/17 09:52:51;;;;;;;17.45;3.50;;;;;;;-141.50;100.00;63355.56;5027162;28;20050;-84
2022/01/17 09:55:24;;;;;;;13.75;2.97;;;;;;;-141.50;100.00;63355.56;5010344;28;20045;-84
2022/01/17 09:58:06;;;;;;;16.75;3.70;;;;;;;-141.50;100.00;63355.56;5003974;28;20054;-85
2022/01/17 10:00:39;;;;;;;22.88;4.00;;;;;;;-141.50;100.00;63355.56;5018125;28;20530;-83
2022/01/17 10:03:10;;;;;;;21.45;3.80;;;;;;;-141.50;100.00;63355.56;5004225;28;20057;-83
2022/01/17 10:05:38;;;;;;;13.07;3.03;;;;;;;-141.50;100.00;63355.56;5017709;28;20046;-85
2022/01/17 10:08:09;;;;;;;13.20;3.58;;;;;;;-141.50;100.00;63355.56;5021900;28;20127;-84
2022/01/17 10:10:57;;;;;;;15.00;3.47;;;;;;;-141.50;100.00;63355.56;5018705;28;20100;-86
2022/01/17 10:13:28;;;;;;;18.58;3.78;;;;;;;-141.50;100.00;63355.56;5009723;28;20088;-86
2022/01/17 10:16:01;;;;;;;13.63;3.20;;;;;;;-141.50;100.00;63355.56;5024097;28;20077;-87
2022/01/17 10:18:33;;;;;;;16.42;3.40;;;;;;;-141.50;100.00;63355.56;5018838;28;20068;-84
2022/01/17 10:21:09;;;;;;;13.93;3.15;;;;;;;-141.50;100.00;63355.56;5019899;28;20057;-85
2022/01/17 10:23:48;;;;;;;16.33;3.90;;;;;;;-141.50;100.00;63355.56;5003864;28;20108;-82
2022/01/17 10:37:22;;;;;;;14.45;3.08;;;;;;;-141.50;100.00;63355.56;5022704;28;20053;-85
2022/01/17 10:39:58;;;;;;;11.85;3.15;;;;;;;-141.50;100.00;63355.56;5022249;28;20621;-84
2022/01/17 10:42:27;;;;;;;11.70;3.50;;;;;;;-141.50;100.00;63355.56;5022460;28;20054;-80
2022/01/17 10:44:54;;;;;;;15.05;3.28;;;;;;;-141.50;100.00;63355.56;5020917;28;20046;-84
2022/01/17 10:47:27;;;;;;;14.50;3.28;;;;;;;-141.50;100.00;63355.56;5017556;28;20257;-83
2022/01/17 10:49:55;;;;;;;13.27;2.75;;;;;;;-141.50;100.00;63355.56;5025974;28;20046;-82
2022/01/17 10:52:29;;;;;;;7.93;2.40;;;;;;;-141.50;100.00;63355.56;5015434;28;20073;-80
2022/01/17 10:55:17;;;;;;;16.67;3.25;;;;;;;-141.50;100.00;63355.56;5017540;28;20053;-85
2022/01/17 10:57:47;;;;;;;16.33;2.80;;;;;;;-141.50;100.00;63355.56;5002615;28;20136;-84
2022/01/17 11:00:21;;;;;;;6.63;2.10;;;;;;;-141.50;100.00;63355.56;4976097;28;1065209;-84
2022/01/17 11:02:54;;;;;;;14.77;2.58;;;;;;;-141.50;100.00;63355.56;5001071;28;20057;-81
2022/01/17 11:05:22;;;;;;;14.00;3.03;;;;;;;-141.50;100.00;63355.56;5002454;28;20126;-81
2022/01/17 11:08:02;;;;;;;9.18;2.20;;;;;;;-141.50;100.00;63355.56;5019700;28;20050;-85
2022/01/17 11:10:36;;;;;;;11.23;2.53;;;;;;;-141.50;100.00;63355.56;5002330;28;20067;-85
2022/01/17 11:13:07;;;;;;;10.20;2.45;;;;;;;-141.50;100.00;63355.56;5002213;28;20050;-83
2022/01/17 11:15:35;;;;;;;11.60;2.83;;;;;;;-141.50;100.00;63355.56;5020496;28;20674;-84
2022/01/17 11:18:10;;;;;;;7.63;2.45;;;;;;;-141.50;100.00;63355.56;5013482;28;20342;-83
2022/01/17 11:20:37;;;;;;;11.88;2.80;;;;;;;-141.50;100.00;63355.56;5020337;28;20049;-86
2022/01/17 11:23:04;;;;;;;8.55;2.50;;;;;;;-141.50;100.00;63355.56;5019651;28;20063;-84
2022/01/17 11:25:34;;;;;;;10.73;2.92;;;;;;;-141.50;100.00;63355.56;5026815;28;20045;-83
2022/01/17 11:28:02;;;;;;;15.60;3.30;;;;;;;-141.50;100.00;63355.56;5040417;28;20056;-83
2022/01/17 11:30:30;;;;;;;12.15;3.10;;;;;;;-141.50;100.00;63355.56;4994942;28;20049;-85
2022/01/17 11:33:03;;;;;;;17.77;3.10;;;;;;;-141.50;100.00;63355.56;5031661;28;20140;-84